Arlington, Maryland
Current Conditions -  °F | °C
As of 8:54 AM on Saturday 22 Nov 2014 (Local Time) from KBWI Reporting Station
Few Clouds Few Clouds  
Wind Chill: 24°   Ceiling: Unl
Heat Index: 29°   Visibility: 10mi
Dew Point: 17°   Wind: 5mph
Humidity: 61%   Direction: 200°SSW
Pressure: 30.51"   Gusts: NA
Location:  39.3453°N, 76.6832°W
Report Text: KBWI 221354Z 20004KT 10SM FEW200 M02/M08 A3051 RMK AO2 SLP333 T10171083
Loading
Personal Weather Stations






























Interactive Weather Map New forecast layout! Learn more

10-Day Weather Forecast

Advertisements
Track Severe Weather on mobile